Thunder radar more information blitzortung!


Radar de pluja more information rain snow radar


Visita la nostra xarxa de llocs de meteo:

Template documentation
and downloads

And another site



No particular awareness of the weather is required.    There are no Weather-warnings

Pagina Historial Weather Underground text

Diari Resum January 6, 2016 Unitats:  Mètric    Imperial   Tant
« Previous Dia
SegĂźent Dia »
Diari Setmana Mensual Anual Personalitzada
  Maxima: Minima: Media:
Temperatura: -17.8 °C -14.1 °C -12.6 °C
Punt de rosada: -17.8 °C -18.8 °C -18.2 °C
Humitat: Humidity % 44 % 49 %
Wind Speed: 0 km/h 0 km/h 13.7 km/h
RĂ fegues de vent: 0 km/h - -
Vent:- - West
Pression baro: 0 hPa 34097 hPa -
Precipitacions: 0 mm    
Historical Graphs
 
 
Dades de taula per January 6, 2016
Temps Temperatura Punt de rosada Pression baro Vent Wind Speed RĂ fegues de vent Humitat Rainfall Rate (Hourly)
-17.8 °C -17.8 °C 0 hPa Calm     Humidity % 0 mm
00:00 -13.5 °C -18.4 °C 34130.9 hPa WSW 11.9 km/h 11.9 km/h 54 % 0 mm
00:05 -13.5 °C -18.4 °C 34130.9 hPa West 2.6 km/h 12.9 km/h 54 % 0 mm
00:10 -13.5 °C -18.4 °C 34130.9 hPa WSW 5.1 km/h 7.7 km/h 54 % 0 mm
00:14 -13.6 °C -18.4 °C 34097 hPa WSW 9 km/h 9 km/h 54 % 0 mm
00:19 -13.6 °C -18.4 °C 34097 hPa West 9 km/h 9.8 km/h 54 % 0 mm
00:24 -13.6 °C -18.4 °C 34097 hPa SW 6 km/h 6 km/h 54 % 0 mm
00:29 -13.7 °C -18.5 °C 34097 hPa SW 6.3 km/h 8 km/h 54 % 0 mm
00:34 -13.7 °C -18.6 °C 34097 hPa WNW 5.1 km/h 5.1 km/h 54 % 0 mm
00:40 -13.7 °C -18.6 °C 34097 hPa WSW 3.1 km/h 5.1 km/h 54 % 0 mm
00:45 -13.8 °C -18.6 °C 34097 hPa West 3.1 km/h   54 % 0 mm
00:50 -13.8 °C -18.7 °C 34097 hPa West 3.7 km/h   54 % 0 mm
00:55 -13.9 °C -18.7 °C 34097 hPa ESE 4.2 km/h   54 % 0 mm
01:00 -13.9 °C -18.8 °C 34097 hPa WSW 3.1 km/h   54 % 0 mm
01:05 -14 °C -18.7 °C 34097 hPa Calm   5.1 km/h 55 % 0 mm
01:10 -14.1 °C -18.7 °C 34097 hPa SW 2.6 km/h 5.1 km/h 55 % 0 mm
01:15 -14.1 °C -18.8 °C 34097 hPa South 3.1 km/h 4.2 km/h 55 % 0 mm
01:20 -14.1 °C -18.8 °C 34097 hPa WSW 12.2 km/h 12.2 km/h 55 % 0 mm
01:25 -14.1 °C -18.6 °C 34097 hPa SSW 11.9 km/h 11.9 km/h 56 % 0 mm
01:30 -14.1 °C -18.7 °C 34097 hPa WSW 6 km/h 6 km/h 56 % 0 mm
01:35 -14.1 °C -18.7 °C 34097 hPa WSW 9 km/h 9 km/h 56 % 0 mm
01:40 -14.1 °C -18.6 °C 34097 hPa SW 6 km/h 6 km/h 56 % 0 mm
01:45 -14.1 °C -18.7 °C 34097 hPa ENE 6 km/h 6 km/h 56 % 0 mm
01:50 -14.1 °C -18.7 °C 34097 hPa West 4.2 km/h 6.8 km/h 56 % 0 mm
01:55 -14.1 °C -18.4 °C 34097 hPa WSW 11.9 km/h 11.9 km/h 57 % 0 mm
02:00 -14.1 °C -18.4 °C 34097 hPa West 7.6 km/h 9.3 km/h 57 % 0 mm
02:05 -14.1 °C -18.4 °C 34097 hPa WSW 9.3 km/h 9.3 km/h 57 % 0 mm
02:10 -14.1 °C -18.4 °C 34097 hPa WSW 23.8 km/h 23.8 km/h 57 % 0 mm
02:15 -14 °C -18.4 °C 34097 hPa WNW 9.3 km/h 15.6 km/h 57 % 0 mm
02:20 -14 °C -18.4 °C 34097 hPa WNW 9.3 km/h 15.6 km/h 57 % 0 mm
02:25 -14 °C -18.4 °C 34097 hPa WNW 9.3 km/h 15.6 km/h 57 % 0 mm
02:30 -14 °C -18.4 °C 34097 hPa WNW 14.5 km/h 14.5 km/h 57 % 0 mm
02:35 -14.1 °C -18.4 °C 34097 hPa WNW 15 km/h 15 km/h 57 % 0 mm
02:40 -14.1 °C -18.4 °C 34130.9 hPa WNW 15 km/h 15 km/h 57 % 0 mm
02:45 -14.1 °C -18.4 °C 34130.9 hPa SW 17.9 km/h 17.9 km/h 58 % 0 mm
02:50 -14.1 °C -18.4 °C 34130.9 hPa West 20.9 km/h 20.9 km/h 58 % 0 mm
13:45 -11.2 °C -17.4 °C 34164.7 hPa West 18.2 km/h 18.2 km/h 46 % 0 mm
13:50 -11.1 °C -17.4 °C 34164.7 hPa West 12.9 km/h 36.2 km/h 46 % 0 mm
13:55 -11.1 °C -17.2 °C 34164.7 hPa West 7.7 km/h 25.9 km/h 47 % 0 mm
14:00 -11.1 °C -17.2 °C 34198.6 hPa West 5.1 km/h 25.9 km/h 47 % 0 mm
14:05 -11 °C -17.3 °C 34198.6 hPa SW 7.7 km/h 10.3 km/h 46 % 0 mm
14:10 -10.9 °C -17 °C 34198.6 hPa NW 12.9 km/h 12.9 km/h 47 % 0 mm
14:15 -10.8 °C -17.1 °C 34198.6 hPa NNE 12.9 km/h 12.9 km/h 46 % 0 mm
14:20 -10.9 °C -17.2 °C 34198.6 hPa NNE 6.3 km/h 12.7 km/h 46 % 0 mm
14:25 -10.8 °C -17.1 °C 34198.6 hPa WSW 16.1 km/h 16.1 km/h 46 % 0 mm
14:30 -10.7 °C -17 °C 34198.6 hPa WSW 16.1 km/h 16.1 km/h 46 % 0 mm
14:35 -10.7 °C -17.2 °C 34198.6 hPa NW 16.1 km/h 16.1 km/h 45 % 0 mm
14:40 -10.9 °C -17.3 °C 34198.6 hPa NW 16.1 km/h 16.1 km/h 45 % 0 mm
14:45 -10.9 °C -17.4 °C 34198.6 hPa WSW 15 km/h 15 km/h 45 % 0 mm
14:50 -11.1 °C -17.5 °C 34198.6 hPa West 17.9 km/h 17.9 km/h 45 % 0 mm
14:55 -11 °C -17.4 °C 34198.6 hPa West 17.9 km/h 17.9 km/h 45 % 0 mm
15:00 -11 °C -17.4 °C 34198.6 hPa West 15.6 km/h 18.2 km/h 45 % 0 mm
15:05 -11.1 °C -17.6 °C 34198.6 hPa West 17.9 km/h 17.9 km/h 45 % 0 mm
15:10 -11 °C -17.4 °C 34198.6 hPa West 7.7 km/h 18.2 km/h 45 % 0 mm
15:15 -11 °C -17.6 °C 34198.6 hPa West 7.7 km/h 12.9 km/h 44 % 0 mm
15:20 -11.1 °C -17.7 °C 34198.6 hPa West 12.2 km/h 12.2 km/h 44 % 0 mm
15:25 -11.1 °C -17.7 °C 34198.6 hPa West 20.8 km/h 31.1 km/h 44 % 0 mm
15:30 -11.2 °C -17.8 °C 34198.6 hPa WSW 20.8 km/h 31.1 km/h 44 % 0 mm
15:35 -11.2 °C -17.8 °C 34198.6 hPa WSW 20.8 km/h 31.1 km/h 44 % 0 mm
15:40 -11.3 °C -17.9 °C 34188.4 hPa WSW 20.8 km/h 31.1 km/h 44 % 0 mm
15:45 -11.4 °C -17.9 °C 34164.7 hPa WSW 29.8 km/h 29.8 km/h 44 % 0 mm
15:50 -11.4 °C -17.9 °C 34164.7 hPa WSW 20.8 km/h 31.1 km/h 44 % 0 mm
15:55 -11.5 °C -17.9 °C 34164.7 hPa WSW 20.8 km/h 31.1 km/h 45 % 0 mm
16:00 -11.5 °C -17.9 °C 34198.6 hPa WSW 29.8 km/h 29.8 km/h 45 % 0 mm
16:05 -11.5 °C -17.9 °C 34198.6 hPa WSW 29.8 km/h 29.8 km/h 45 % 0 mm
16:10 -11.4 °C -17.8 °C 34198.6 hPa WSW 29.8 km/h 29.8 km/h 45 % 0 mm
16:15 -11.4 °C -17.8 °C 34198.6 hPa WSW 29.8 km/h 29.8 km/h 45 % 0 mm
16:20 -11.4 °C -17.8 °C 34198.6 hPa WSW 15.6 km/h 31.1 km/h 45 % 0 mm
16:25 -11.4 °C -17.8 °C 34198.6 hPa WSW 15.6 km/h 23.3 km/h 45 % 0 mm
16:30 -11.3 °C -17.7 °C 34198.6 hPa WSW 15.6 km/h 25.9 km/h 45 % 0 mm
16:35 -11.2 °C -17.6 °C 34198.6 hPa WSW 12.9 km/h 25.9 km/h 45 % 0 mm
16:40 -11.3 °C -17.7 °C 34198.6 hPa SW 17.9 km/h 17.9 km/h 45 % 0 mm
16:45 -11.3 °C -17.7 °C 34198.6 hPa SW 15.6 km/h 18.2 km/h 45 % 0 mm
16:50 -11.3 °C -17.7 °C 34198.6 hPa SW 15.6 km/h 18.2 km/h 45 % 0 mm
16:55 -11.4 °C -17.8 °C 34198.6 hPa SW 17.9 km/h 17.9 km/h 45 % 0 mm
17:00 -11.5 °C -17.9 °C 34198.6 hPa SW 17.9 km/h 17.9 km/h 45 % 0 mm
17:05 -11.4 °C -17.8 °C 34198.6 hPa SW 17.9 km/h 17.9 km/h 45 % 0 mm
17:10 -11.4 °C -17.8 °C 34222.3 hPa SW 17.9 km/h 17.9 km/h 45 % 0 mm
17:15 -11.4 °C -17.8 °C 34222.3 hPa SW 15.6 km/h 18.2 km/h 45 % 0 mm
17:20 -11.6 °C -17.9 °C 34222.3 hPa SW 15.6 km/h 18.2 km/h 45 % 0 mm
17:25 -11.7 °C -18.1 °C 34256.2 hPa SW 17.9 km/h 17.9 km/h 45 % 0 mm
17:30 -11.8 °C -18.2 °C 34256.2 hPa SW 17.9 km/h 17.9 km/h 45 % 0 mm
17:35 -11.8 °C -18.2 °C 34256.2 hPa SW 17.9 km/h 17.9 km/h 45 % 0 mm
17:40 -11.9 °C -18.2 °C 34256.2 hPa SW 17.9 km/h 17.9 km/h 45 % 0 mm
17:45 -11.9 °C -18.2 °C 34256.2 hPa SW 17.9 km/h 17.9 km/h 46 % 0 mm
17:50 -12 °C -18.2 °C 34256.2 hPa SW 17.9 km/h 17.9 km/h 46 % 0 mm
17:55 -12.1 °C -18.3 °C 34256.2 hPa SW 15.6 km/h 18.2 km/h 46 % 0 mm
18:00 -12.1 °C -18.3 °C 34222.3 hPa SW 15.6 km/h 18.2 km/h 46 % 0 mm
18:05 -12.2 °C -18.3 °C 34222.3 hPa SW 15.6 km/h 18.2 km/h 46 % 0 mm
18:10 -12.2 °C -18.4 °C 34235.8 hPa SW 15.6 km/h 18.2 km/h 46 % 0 mm
18:15 -12.2 °C -18.4 °C 34256.2 hPa SW 17.9 km/h 17.9 km/h 46 % 0 mm
18:20 -12.2 °C -18.2 °C 34256.2 hPa WNW 6.8 km/h 14 km/h 47 % 0 mm
18:25 -12.3 °C -18.3 °C 34256.2 hPa WNW 6.8 km/h 14 km/h 47 % 0 mm
18:30 -12.3 °C -18.3 °C 34256.2 hPa WNW 6.8 km/h 14 km/h 47 % 0 mm
18:35 -12.3 °C -18.3 °C 34256.2 hPa WNW 6.8 km/h 14 km/h 47 % 0 mm
18:40 -12.3 °C -18.3 °C 34256.2 hPa WNW 6.8 km/h 14 km/h 47 % 0 mm
18:45 -12.3 °C -18.3 °C 34256.2 hPa SSW 9 km/h 10.3 km/h 47 % 0 mm
18:50 -12.4 °C -18.4 °C 34256.2 hPa SSW 9 km/h 10.3 km/h 47 % 0 mm
18:55 -12.3 °C -18.3 °C 34222.3 hPa SSW 9 km/h 10.3 km/h 47 % 0 mm
19:00 -12.4 °C -18.4 °C 34222.3 hPa West 9 km/h 9 km/h 47 % 0 mm
19:05 -12.4 °C -18.4 °C 34222.3 hPa West 4.2 km/h 5.6 km/h 47 % 0 mm
19:10 -12.4 °C -18.4 °C 34222.3 hPa West 12.7 km/h 12.7 km/h 47 % 0 mm
19:15 -12.4 °C -18.4 °C 34222.3 hPa West 12.7 km/h 12.7 km/h 47 % 0 mm
19:20 -12.4 °C -18.4 °C 34222.3 hPa West 12.7 km/h 12.7 km/h 47 % 0 mm
19:25 -12.3 °C -18.3 °C 34222.3 hPa West 12.7 km/h 12.7 km/h 47 % 0 mm
19:30 -12.3 °C -18.3 °C 34256.2 hPa West 12.7 km/h 12.7 km/h 47 % 0 mm
19:35 -12.4 °C -18.4 °C 34256.2 hPa West 12.7 km/h 12.7 km/h 47 % 0 mm
19:40 -12.4 °C -18.4 °C 34256.2 hPa West 12.7 km/h 12.7 km/h 47 % 0 mm
19:45 -12.4 °C -18.6 °C 34256.2 hPa West 12.7 km/h 12.7 km/h 46 % 0 mm
19:50 -12.3 °C -18.5 °C 34256.2 hPa West 12.9 km/h 15.6 km/h 46 % 0 mm
19:55 -12.4 °C -18.6 °C 34256.2 hPa WNW 12.9 km/h 15.6 km/h 46 % 0 mm
20:00 -12.4 °C -18.6 °C 34256.2 hPa WNW 16.1 km/h 16.1 km/h 46 % 0 mm
20:05 -12.4 °C -18.4 °C 34256.2 hPa WNW 16.1 km/h 16.1 km/h 47 % 0 mm
20:10 -12.4 °C -18.4 °C 34256.2 hPa WNW 16.1 km/h 16.1 km/h 47 % 0 mm
20:15 -12.4 °C -18.4 °C 34256.2 hPa WNW 16.1 km/h 16.1 km/h 47 % 0 mm
20:20 -12.4 °C -18.4 °C 34256.2 hPa WNW 16.1 km/h 16.1 km/h 47 % 0 mm
20:25 -12.5 °C -18.5 °C 34222.3 hPa WNW 16.1 km/h 16.1 km/h 47 % 0 mm
20:30 -12.5 °C -18.5 °C 34222.3 hPa WNW 16.1 km/h 16.1 km/h 47 % 0 mm
20:35 -12.6 °C -18.5 °C 34222.3 hPa WNW 16.1 km/h 16.1 km/h 47 % 0 mm
20:40 -12.6 °C -18.4 °C 34256.2 hPa WNW 16.1 km/h 16.1 km/h 48 % 0 mm
20:45 -12.7 °C -18.5 °C 34256.2 hPa WNW 16.1 km/h 16.1 km/h 48 % 0 mm
20:50 -12.7 °C -18.5 °C 34256.2 hPa WNW 16.1 km/h 16.1 km/h 48 % 0 mm
20:55 -12.7 °C -18.5 °C 34256.2 hPa WNW 12.9 km/h 15.6 km/h 48 % 0 mm
21:00 -12.8 °C -18.6 °C 34256.2 hPa WNW 16.1 km/h 16.1 km/h 48 % 0 mm
21:05 -12.8 °C -18.7 °C 34256.2 hPa WNW 16.1 km/h 16.1 km/h 48 % 0 mm
21:10 -12.9 °C -18.7 °C 34256.2 hPa WNW 16.1 km/h 16.1 km/h 48 % 0 mm
21:15 -12.9 °C -18.5 °C 34256.2 hPa WNW 16.1 km/h 16.1 km/h 49 % 0 mm
21:20 -12.9 °C -18.6 °C 34256.2 hPa WNW 16.1 km/h 16.1 km/h 49 % 0 mm
21:25 -12.9 °C -18.6 °C 34256.2 hPa WNW 16.1 km/h 16.1 km/h 49 % 0 mm
21:30 -12.9 °C -18.6 °C 34256.2 hPa WNW 16.1 km/h 16.1 km/h 49 % 0 mm
21:35 -13 °C -18.7 °C 34256.2 hPa WNW 12.9 km/h 15.6 km/h 49 % 0 mm
21:40 -13 °C -18.5 °C 34256.2 hPa WNW 12.9 km/h 15.6 km/h 50 % 0 mm
21:45 -13 °C -18.5 °C 34256.2 hPa WNW 16.1 km/h 16.1 km/h 50 % 0 mm
21:50 -13 °C -18.5 °C 34256.2 hPa WNW 16.1 km/h 16.1 km/h 50 % 0 mm
21:55 -13.1 °C -18.5 °C 34256.2 hPa WNW 16.1 km/h 16.1 km/h 50 % 0 mm
22:00 -13.1 °C -18.4 °C 34256.2 hPa WNW 16.1 km/h 16.1 km/h 51 % 0 mm
22:05 -13.1 °C -18.4 °C 34256.2 hPa WNW 16.1 km/h 16.1 km/h 51 % 0 mm
22:10 -13.1 °C -18.4 °C 34256.2 hPa WNW 16.1 km/h 16.1 km/h 51 % 0 mm
22:15 -13.1 °C -18.4 °C 34256.2 hPa WNW 16.1 km/h 16.1 km/h 51 % 0 mm
22:20 -13.2 °C -18.5 °C 34256.2 hPa WNW 16.1 km/h 16.1 km/h 51 % 0 mm
22:25 -13.2 °C -18.5 °C 34256.2 hPa WNW 16.1 km/h 16.1 km/h 51 % 0 mm
22:30 -13.2 °C -18.3 °C 34256.2 hPa WNW 16.1 km/h 16.1 km/h 52 % 0 mm
22:35 -13.2 °C -18.3 °C 34256.2 hPa WNW 16.1 km/h 16.1 km/h 52 % 0 mm
22:40 -13.2 °C -18.3 °C 34222.3 hPa WNW 16.1 km/h 16.1 km/h 52 % 0 mm
22:45 -13.2 °C -18.3 °C 34222.3 hPa WNW 12.9 km/h 15.6 km/h 52 % 0 mm
22:50 -13.2 °C -18.3 °C 34222.3 hPa WNW 12.9 km/h 15.6 km/h 52 % 0 mm
22:55 -13.2 °C -18.3 °C 34222.3 hPa WNW 12.9 km/h 15.6 km/h 52 % 0 mm
23:00 -13.2 °C -18.4 °C 34222.3 hPa WNW 16.1 km/h 16.1 km/h 52 % 0 mm
23:05 -13.2 °C -18.4 °C 34222.3 hPa WNW 16.1 km/h 16.1 km/h 52 % 0 mm
23:10 -13.3 °C -18.4 °C 34222.3 hPa WNW 12.9 km/h 15.6 km/h 52 % 0 mm
23:15 -13.3 °C -18.3 °C 34198.6 hPa WNW 16.1 km/h 16.1 km/h 53 % 0 mm
23:20 -13.3 °C -18.3 °C 34198.6 hPa WNW 16.1 km/h 16.1 km/h 53 % 0 mm
23:25 -13.3 °C -18.3 °C 34222.3 hPa WNW 16.1 km/h 16.1 km/h 53 % 0 mm
23:30 -13.3 °C -18.3 °C 34222.3 hPa WNW 16.1 km/h 16.1 km/h 53 % 0 mm
23:35 -13.3 °C -18.3 °C 34222.3 hPa WNW 16.1 km/h 16.1 km/h 53 % 0 mm
23:40 -13.3 °C -18.2 °C 34198.6 hPa WNW 16.1 km/h 16.1 km/h 54 % 0 mm
23:45 -13.3 °C -18.2 °C 34198.6 hPa WNW 16.1 km/h 16.1 km/h 54 % 0 mm
23:50 -13.3 °C -18.2 °C 34198.6 hPa WNW 12.9 km/h 15.6 km/h 54 % 0 mm
Meteo Sesrovires
Elogis d' Weather Underground - 2 mb

Guio original per  Jim McMurry - jmcmurry@mwt.net Adaptat per a la plantilla per  Wim van der Kuil - Leuven-Template.eu

Trobareu la nostra informacio del temps tambe a:

Weather Underground

AWEKAS